Asherville, Indiana
Current Conditions -  °F | °C
As of 12:53 AM on Friday 31 Oct 2014 (Local Time) from KHUF Reporting Station
Overcast Overcast  
Wind Chill: 47°   Ceiling: 5000
Heat Index: 47°   Visibility: 10mi
Dew Point: 44°   Wind: 0mph
Humidity: 90%   Direction: NA
Pressure: 30.06"   Gusts: NA
Location:  39.5158°N, 87.1262°W
Report Text: KHUF 310453Z 00000KT 10SM FEW041 BKN050 OVC065 08/07 A3006 RMK AO2 RAE03B20E34 SLP180 P0000 T00830067 401221006
Loading
Personal Weather Stations






























Interactive Weather Map New forecast layout! Learn more

10-Day Weather Forecast

Advertisements
Track Severe Weather on mobile